KSEZ

Sedona Airport

Sedona, Arizona, USA
METAR KSEZ 170015Z AUTO 00000KT 10SM CLR 13/M10 A3025 RMK AO2
Observed Flight Rules
Dec-17 @ 00:15 UTC (29 minutes ago) Visual Flight Rules
Visibility Clouds
10 miles
  • Clear skies
Temperatures Readings
Current 13°C / 55°F
Dewpoint -10°C / 14°F
Humidity 19%
Altimeter 30.25" Hg
Pressure 1024 hPa
Elevation 1473
METAR KSEZ 170015Z AUTO 00000KT 10SM CLR 13/M10 A3025 RMK AO2
Observed Flight Rules
Dec-17 @ 00:15 UTC
(29 minutes ago)
VFR
Clouds
  • Clear skies
Temperature Dewpoint
13°C / 55°F -10°C / 14°F
Humidity Altimeter Pressure
19% 30.25" Hg 1024 hPa